SWA1471 KLAX-KSFO
Flight info
| Callsign | SWA1471 |
|---|---|
| Flight time | 0h 55m |
| Altitude | 40000 |
| Route | SUMMR2 STOKD SERFR SERFR4 |
| Aircraft | B736/M-SDE2E3FGHIRWXY/LB1 |
Departure
| Time | 2026-04-25 15:05 |
|---|---|
| Airport | Los Angeles International Airport (KLAX) |
Arrival
| Time | 2026-04-25 16:00 |
|---|---|
| Airport | San Francisco International Airport (KSFO) |
| Time | Latitude | Longitude | Altitude | Speed | Heading |
|---|---|---|---|---|---|
| 2026-04-25 14:12 | 33.94726 | -118.40190 | 124 ft | 0 kts | 82° |
| 2026-04-25 14:54 | 33.94726 | -118.40191 | 125 ft | 1 kts | 82° |
| 2026-04-25 14:55 | 33.94723 | -118.40210 | 123 ft | 2 kts | 79° |
| 2026-04-25 14:55 | 33.94720 | -118.40229 | 125 ft | 2 kts | 76° |
| 2026-04-25 14:55 | 33.94716 | -118.40248 | 121 ft | 2 kts | 73° |
| 2026-04-25 14:55 | 33.94715 | -118.40252 | 121 ft | 0 kts | 72° |
| 2026-04-25 14:56 | 33.94715 | -118.40253 | 121 ft | 1 kts | 72° |
| 2026-04-25 14:56 | 33.94713 | -118.40260 | 120 ft | 0 kts | 71° |
| 2026-04-25 15:00 | 33.94726 | -118.40254 | 121 ft | 7 kts | 2° |
| 2026-04-25 15:01 | 33.94788 | -118.40266 | 122 ft | 9 kts | 351° |
| 2026-04-25 15:01 | 33.94849 | -118.40289 | 121 ft | 9 kts | 352° |
| 2026-04-25 15:01 | 33.94900 | -118.40248 | 123 ft | 11 kts | 74° |
| 2026-04-25 15:01 | 33.94910 | -118.40161 | 124 ft | 10 kts | 82° |
| 2026-04-25 15:02 | 33.94919 | -118.40076 | 121 ft | 10 kts | 82° |
| 2026-04-25 15:02 | 33.94927 | -118.39993 | 125 ft | 10 kts | 83° |
| 2026-04-25 15:02 | 33.94942 | -118.39937 | 123 ft | 6 kts | 54° |
| 2026-04-25 15:02 | 33.94952 | -118.39925 | 122 ft | 0 kts | 39° |
| 2026-04-25 15:04 | 33.94968 | -118.39916 | 125 ft | 5 kts | 19° |
| 2026-04-25 15:04 | 33.95016 | -118.39917 | 122 ft | 8 kts | 345° |
| 2026-04-25 15:04 | 33.95036 | -118.39972 | 125 ft | 7 kts | 265° |
| 2026-04-25 15:05 | 33.95007 | -118.40276 | 125 ft | 91 kts | 263° |
| 2026-04-25 15:05 | 33.94883 | -118.41454 | 205 ft | 184 kts | 263° |
| 2026-04-25 15:05 | 33.94729 | -118.43011 | 1310 ft | 178 kts | 262° |
| 2026-04-25 15:06 | 33.94483 | -118.45994 | 3167 ft | 202 kts | 260° |
| 2026-04-25 15:06 | 33.94289 | -118.47733 | 3762 ft | 214 kts | 264° |
| 2026-04-25 15:06 | 33.94223 | -118.49596 | 4347 ft | 231 kts | 267° |
| 2026-04-25 15:06 | 33.94177 | -118.51601 | 4982 ft | 248 kts | 265° |
| 2026-04-25 15:07 | 33.94027 | -118.53739 | 5709 ft | 260 kts | 264° |
| 2026-04-25 15:07 | 33.93847 | -118.55909 | 6890 ft | 260 kts | 264° |
| 2026-04-25 15:07 | 33.93671 | -118.58045 | 8191 ft | 258 kts | 264° |
| 2026-04-25 15:07 | 33.93498 | -118.60204 | 9456 ft | 260 kts | 264° |
| 2026-04-25 15:08 | 33.93325 | -118.62389 | 10517 ft | 267 kts | 263° |
| 2026-04-25 15:08 | 33.93140 | -118.64715 | 11018 ft | 292 kts | 263° |
| 2026-04-25 15:08 | 33.92946 | -118.67196 | 11658 ft | 300 kts | 263° |
| 2026-04-25 15:08 | 33.92752 | -118.69699 | 11968 ft | 302 kts | 263° |
| 2026-04-25 15:09 | 33.92557 | -118.72227 | 11988 ft | 303 kts | 263° |
| 2026-04-25 15:09 | 33.92362 | -118.74745 | 11999 ft | 302 kts | 263° |
| 2026-04-25 15:09 | 33.91968 | -118.79783 | 12006 ft | 303 kts | 263° |
| 2026-04-25 15:10 | 33.91769 | -118.82321 | 12002 ft | 304 kts | 263° |
| 2026-04-25 15:10 | 33.91674 | -118.84876 | 12151 ft | 309 kts | 269° |
| 2026-04-25 15:10 | 33.91867 | -118.90044 | 14377 ft | 308 kts | 270° |
| 2026-04-25 15:11 | 33.91966 | -118.92643 | 15253 ft | 314 kts | 269° |
| 2026-04-25 15:11 | 33.92051 | -118.95257 | 16095 ft | 319 kts | 269° |
| 2026-04-25 15:11 | 33.92131 | -118.97951 | 16981 ft | 324 kts | 269° |
| 2026-04-25 15:12 | 33.93048 | -119.03343 | 18685 ft | 344 kts | 292° |
| 2026-04-25 15:12 | 33.94281 | -119.05841 | 19537 ft | 349 kts | 297° |
| 2026-04-25 15:12 | 33.95601 | -119.08308 | 20313 ft | 355 kts | 297° |
| 2026-04-25 15:12 | 33.96061 | -119.09163 | 20575 ft | 356 kts | 297° |
| 2026-04-25 15:13 | 33.98294 | -119.13392 | 21854 ft | 363 kts | 296° |
| 2026-04-25 15:13 | 34.01107 | -119.18559 | 23375 ft | 380 kts | 306° |
| 2026-04-25 15:13 | 34.03151 | -119.20664 | 24050 ft | 392 kts | 317° |
| 2026-04-25 15:14 | 34.05387 | -119.22592 | 24744 ft | 396 kts | 319° |
| 2026-04-25 15:14 | 34.07647 | -119.24483 | 25393 ft | 400 kts | 319° |
| 2026-04-25 15:14 | 34.09960 | -119.26414 | 26037 ft | 404 kts | 319° |
| 2026-04-25 15:14 | 34.11489 | -119.27700 | 26462 ft | 406 kts | 319° |
| 2026-04-25 15:15 | 34.13814 | -119.29671 | 27094 ft | 409 kts | 319° |
| 2026-04-25 15:15 | 34.16936 | -119.32343 | 27923 ft | 414 kts | 319° |
| 2026-04-25 15:15 | 34.18500 | -119.33688 | 28325 ft | 417 kts | 319° |
| 2026-04-25 15:15 | 34.20866 | -119.35727 | 28914 ft | 420 kts | 319° |
| 2026-04-25 15:16 | 34.23255 | -119.37790 | 29491 ft | 424 kts | 319° |
| 2026-04-25 15:16 | 34.25660 | -119.39869 | 30054 ft | 427 kts | 319° |
| 2026-04-25 15:16 | 34.30483 | -119.44036 | 31390 ft | 422 kts | 319° |
| 2026-04-25 15:17 | 34.35210 | -119.48127 | 32804 ft | 415 kts | 318° |
| 2026-04-25 15:17 | 34.37547 | -119.50155 | 33399 ft | 414 kts | 318° |
| 2026-04-25 15:17 | 34.39882 | -119.52181 | 33986 ft | 412 kts | 318° |
| 2026-04-25 15:18 | 34.42139 | -119.54296 | 34496 ft | 405 kts | 311° |
| 2026-04-25 15:18 | 34.46104 | -119.59083 | 35391 ft | 401 kts | 307° |
| 2026-04-25 15:18 | 34.48024 | -119.61533 | 35838 ft | 400 kts | 306° |
| 2026-04-25 15:19 | 34.49938 | -119.63969 | 36315 ft | 397 kts | 306° |
| 2026-04-25 15:19 | 34.51203 | -119.65566 | 36604 ft | 397 kts | 306° |
| 2026-04-25 15:19 | 34.53779 | -119.68793 | 37085 ft | 399 kts | 306° |
| 2026-04-25 15:19 | 34.55718 | -119.71203 | 37500 ft | 398 kts | 306° |
| 2026-04-25 15:20 | 34.57659 | -119.73602 | 37917 ft | 397 kts | 306° |
| 2026-04-25 15:20 | 34.59609 | -119.76018 | 37958 ft | 404 kts | 306° |
| 2026-04-25 15:20 | 34.63544 | -119.80884 | 37982 ft | 400 kts | 306° |
| 2026-04-25 15:21 | 34.67418 | -119.85667 | 38007 ft | 396 kts | 306° |
| 2026-04-25 15:21 | 34.71279 | -119.90456 | 38010 ft | 397 kts | 306° |
| 2026-04-25 15:22 | 34.75118 | -119.95223 | 38010 ft | 397 kts | 306° |
| 2026-04-25 15:22 | 34.78987 | -120.00032 | 37992 ft | 396 kts | 306° |
| 2026-04-25 15:23 | 34.82840 | -120.04828 | 37996 ft | 396 kts | 306° |
| 2026-04-25 15:23 | 34.86693 | -120.09631 | 37995 ft | 397 kts | 306° |
| 2026-04-25 15:24 | 34.90552 | -120.14449 | 38003 ft | 397 kts | 306° |
| 2026-04-25 15:24 | 34.93785 | -120.18491 | 38000 ft | 397 kts | 306° |
| 2026-04-25 15:25 | 34.98272 | -120.24107 | 38011 ft | 398 kts | 306° |
| 2026-04-25 15:25 | 35.02138 | -120.28954 | 38015 ft | 398 kts | 306° |
| 2026-04-25 15:26 | 35.05999 | -120.33803 | 38013 ft | 399 kts | 306° |
| 2026-04-25 15:26 | 35.09898 | -120.38642 | 38004 ft | 402 kts | 308° |
| 2026-04-25 15:27 | 35.14029 | -120.43284 | 38007 ft | 404 kts | 309° |
| 2026-04-25 15:28 | 35.20283 | -120.50197 | 37999 ft | 404 kts | 309° |
| 2026-04-25 15:28 | 35.24394 | -120.54799 | 38003 ft | 403 kts | 309° |
| 2026-04-25 15:29 | 35.28521 | -120.59443 | 38009 ft | 404 kts | 309° |
| 2026-04-25 15:29 | 35.32665 | -120.64116 | 38002 ft | 405 kts | 309° |
| 2026-04-25 15:30 | 35.36815 | -120.68799 | 38008 ft | 405 kts | 309° |
| 2026-04-25 15:30 | 35.40964 | -120.73489 | 37999 ft | 407 kts | 309° |
| 2026-04-25 15:31 | 35.45115 | -120.78186 | 37992 ft | 405 kts | 309° |
| 2026-04-25 15:31 | 35.49289 | -120.82836 | 38007 ft | 408 kts | 311° |
| 2026-04-25 15:32 | 35.53813 | -120.87098 | 38007 ft | 411 kts | 315° |
| 2026-04-25 15:32 | 35.58420 | -120.91256 | 38012 ft | 411 kts | 315° |
| 2026-04-25 15:33 | 35.65279 | -120.97564 | 37997 ft | 410 kts | 314° |
| 2026-04-25 15:33 | 35.69794 | -121.01768 | 38009 ft | 410 kts | 314° |
| 2026-04-25 15:34 | 35.74317 | -121.05988 | 37853 ft | 403 kts | 314° |
| 2026-04-25 15:34 | 35.76554 | -121.08076 | 37249 ft | 404 kts | 314° |
| 2026-04-25 15:34 | 35.78068 | -121.09494 | 36761 ft | 406 kts | 315° |
| 2026-04-25 15:35 | 35.83362 | -121.14461 | 35114 ft | 415 kts | 315° |
| 2026-04-25 15:35 | 35.85660 | -121.16613 | 34614 ft | 413 kts | 315° |
| 2026-04-25 15:35 | 35.87930 | -121.18737 | 34244 ft | 407 kts | 315° |
| 2026-04-25 15:36 | 35.92398 | -121.22925 | 33330 ft | 400 kts | 316° |
| 2026-04-25 15:36 | 35.94611 | -121.25007 | 32803 ft | 399 kts | 316° |
| 2026-04-25 15:36 | 35.96818 | -121.27085 | 32292 ft | 398 kts | 316° |
| 2026-04-25 15:37 | 35.99012 | -121.29152 | 31810 ft | 396 kts | 316° |
| 2026-04-25 15:37 | 36.01198 | -121.31212 | 31359 ft | 394 kts | 317° |
| 2026-04-25 15:37 | 36.03376 | -121.33265 | 30917 ft | 392 kts | 317° |
| 2026-04-25 15:37 | 36.05539 | -121.35305 | 30470 ft | 391 kts | 317° |
| 2026-04-25 15:38 | 36.07693 | -121.37284 | 30017 ft | 391 kts | 320° |
| 2026-04-25 15:38 | 36.09959 | -121.39126 | 29547 ft | 390 kts | 323° |
| 2026-04-25 15:38 | 36.12259 | -121.40888 | 29090 ft | 387 kts | 323° |
| 2026-04-25 15:38 | 36.14546 | -121.42615 | 28648 ft | 384 kts | 323° |
| 2026-04-25 15:39 | 36.16817 | -121.44340 | 28188 ft | 381 kts | 323° |
| 2026-04-25 15:39 | 36.19063 | -121.46061 | 27692 ft | 379 kts | 323° |
| 2026-04-25 15:39 | 36.21296 | -121.47788 | 27170 ft | 379 kts | 323° |
| 2026-04-25 15:39 | 36.23522 | -121.49519 | 26731 ft | 376 kts | 323° |
| 2026-04-25 15:40 | 36.25726 | -121.51238 | 26325 ft | 373 kts | 322° |
| 2026-04-25 15:40 | 36.26469 | -121.51818 | 26168 ft | 372 kts | 323° |
| 2026-04-25 15:40 | 36.30084 | -121.54645 | 25515 ft | 368 kts | 322° |
| 2026-04-25 15:40 | 36.32246 | -121.56338 | 25121 ft | 365 kts | 322° |
| 2026-04-25 15:41 | 36.34385 | -121.58014 | 24729 ft | 362 kts | 322° |
| 2026-04-25 15:41 | 36.36506 | -121.59677 | 24341 ft | 360 kts | 322° |
| 2026-04-25 15:41 | 36.38623 | -121.61338 | 23940 ft | 358 kts | 322° |
| 2026-04-25 15:41 | 36.40724 | -121.62988 | 23540 ft | 357 kts | 322° |
| 2026-04-25 15:42 | 36.42822 | -121.64637 | 23088 ft | 355 kts | 322° |
| 2026-04-25 15:42 | 36.44896 | -121.66267 | 22673 ft | 352 kts | 323° |
| 2026-04-25 15:42 | 36.46919 | -121.67857 | 22290 ft | 349 kts | 323° |
| 2026-04-25 15:42 | 36.48997 | -121.69492 | 21898 ft | 346 kts | 323° |
| 2026-04-25 15:43 | 36.51021 | -121.71086 | 21571 ft | 341 kts | 323° |
| 2026-04-25 15:43 | 36.53010 | -121.72656 | 21226 ft | 337 kts | 323° |
| 2026-04-25 15:43 | 36.54987 | -121.74218 | 20935 ft | 334 kts | 323° |
| 2026-04-25 15:43 | 36.56942 | -121.75765 | 20654 ft | 332 kts | 324° |
| 2026-04-25 15:44 | 36.58887 | -121.77305 | 20404 ft | 331 kts | 324° |
| 2026-04-25 15:44 | 36.60856 | -121.78865 | 19757 ft | 338 kts | 325° |
| 2026-04-25 15:44 | 36.62838 | -121.80435 | 19299 ft | 338 kts | 325° |
| 2026-04-25 15:44 | 36.64826 | -121.82011 | 18895 ft | 337 kts | 326° |
| 2026-04-25 15:45 | 36.66773 | -121.83556 | 18501 ft | 335 kts | 326° |
| 2026-04-25 15:45 | 36.68733 | -121.85111 | 18110 ft | 333 kts | 326° |
| 2026-04-25 15:45 | 36.70685 | -121.86662 | 17695 ft | 330 kts | 326° |
| 2026-04-25 15:45 | 36.71339 | -121.87181 | 17560 ft | 329 kts | 326° |
| 2026-04-25 15:46 | 36.74575 | -121.89565 | 16983 ft | 323 kts | 340° |
| 2026-04-25 15:46 | 36.76710 | -121.90261 | 16792 ft | 314 kts | 347° |
| 2026-04-25 15:46 | 36.78839 | -121.90826 | 16466 ft | 311 kts | 348° |
| 2026-04-25 15:46 | 36.80954 | -121.91375 | 16096 ft | 309 kts | 347° |
| 2026-04-25 15:47 | 36.83047 | -121.91930 | 15752 ft | 307 kts | 347° |
| 2026-04-25 15:47 | 36.85128 | -121.92493 | 15402 ft | 305 kts | 347° |
| 2026-04-25 15:47 | 36.87195 | -121.93063 | 15052 ft | 303 kts | 347° |
| 2026-04-25 15:47 | 36.89246 | -121.93633 | 14703 ft | 301 kts | 347° |
| 2026-04-25 15:48 | 36.91261 | -121.94196 | 14359 ft | 300 kts | 347° |
| 2026-04-25 15:48 | 36.93294 | -121.94764 | 14006 ft | 299 kts | 347° |
| 2026-04-25 15:48 | 36.95317 | -121.95339 | 13650 ft | 298 kts | 346° |
| 2026-04-25 15:48 | 36.97303 | -121.96045 | 13267 ft | 296 kts | 342° |
| 2026-04-25 15:49 | 36.99262 | -121.96816 | 12899 ft | 294 kts | 342° |
| 2026-04-25 15:49 | 37.01210 | -121.97598 | 12544 ft | 293 kts | 341° |
| 2026-04-25 15:49 | 37.03145 | -121.98372 | 12187 ft | 291 kts | 342° |
| 2026-04-25 15:49 | 37.05073 | -121.99137 | 11842 ft | 290 kts | 342° |
| 2026-04-25 15:50 | 37.06999 | -121.99898 | 11493 ft | 289 kts | 342° |
| 2026-04-25 15:50 | 37.08908 | -122.00648 | 11154 ft | 288 kts | 342° |
| 2026-04-25 15:50 | 37.10816 | -122.01397 | 10804 ft | 287 kts | 342° |
| 2026-04-25 15:50 | 37.12726 | -122.02145 | 10452 ft | 286 kts | 342° |
| 2026-04-25 15:51 | 37.14624 | -122.02888 | 10127 ft | 285 kts | 342° |
| 2026-04-25 15:51 | 37.15240 | -122.03130 | 10086 ft | 282 kts | 342° |
| 2026-04-25 15:51 | 37.18358 | -122.04351 | 9567 ft | 279 kts | 342° |
| 2026-04-25 15:51 | 37.20207 | -122.05076 | 9229 ft | 278 kts | 342° |
| 2026-04-25 15:52 | 37.22028 | -122.05789 | 8906 ft | 277 kts | 341° |
| 2026-04-25 15:52 | 37.23857 | -122.06507 | 8582 ft | 275 kts | 342° |
| 2026-04-25 15:52 | 37.25678 | -122.07221 | 8269 ft | 274 kts | 342° |
| 2026-04-25 15:52 | 37.27492 | -122.07933 | 7943 ft | 273 kts | 342° |
| 2026-04-25 15:53 | 37.29306 | -122.08647 | 7589 ft | 274 kts | 341° |
| 2026-04-25 15:53 | 37.31133 | -122.09367 | 7245 ft | 276 kts | 342° |
| 2026-04-25 15:53 | 37.32968 | -122.10090 | 6894 ft | 276 kts | 342° |
| 2026-04-25 15:53 | 37.34802 | -122.10813 | 6522 ft | 277 kts | 341° |
| 2026-04-25 15:54 | 37.36643 | -122.11539 | 6145 ft | 277 kts | 341° |
| 2026-04-25 15:54 | 37.38482 | -122.12240 | 5791 ft | 276 kts | 343° |
| 2026-04-25 15:54 | 37.40330 | -122.12872 | 5456 ft | 274 kts | 344° |
| 2026-04-25 15:54 | 37.42159 | -122.13487 | 5131 ft | 271 kts | 343° |
| 2026-04-25 15:55 | 37.43952 | -122.14095 | 4810 ft | 269 kts | 343° |
| 2026-04-25 15:55 | 37.45747 | -122.14703 | 4477 ft | 266 kts | 343° |
| 2026-04-25 15:55 | 37.47527 | -122.15289 | 4154 ft | 263 kts | 343° |
| 2026-04-25 15:55 | 37.49274 | -122.15862 | 3835 ft | 261 kts | 343° |
| 2026-04-25 15:56 | 37.51025 | -122.16438 | 3525 ft | 259 kts | 343° |
| 2026-04-25 15:56 | 37.52755 | -122.17015 | 3209 ft | 256 kts | 340° |
| 2026-04-25 15:56 | 37.54210 | -122.18187 | 2885 ft | 247 kts | 305° |
| 2026-04-25 15:56 | 37.54971 | -122.20076 | 2650 ft | 240 kts | 291° |
| 2026-04-25 15:57 | 37.55654 | -122.21988 | 2342 ft | 237 kts | 294° |
| 2026-04-25 15:57 | 37.56382 | -122.23774 | 2055 ft | 221 kts | 296° |
| 2026-04-25 15:57 | 37.57066 | -122.25405 | 1874 ft | 198 kts | 296° |
| 2026-04-25 15:57 | 37.57677 | -122.26869 | 1638 ft | 179 kts | 296° |
| 2026-04-25 15:58 | 37.58231 | -122.28201 | 1410 ft | 163 kts | 296° |
| 2026-04-25 15:58 | 37.58730 | -122.29398 | 1212 ft | 142 kts | 295° |
| 2026-04-25 15:58 | 37.59157 | -122.30422 | 976 ft | 121 kts | 295° |
| 2026-04-25 15:58 | 37.59516 | -122.31287 | 800 ft | 103 kts | 295° |
| 2026-04-25 15:59 | 37.59848 | -122.32081 | 701 ft | 112 kts | 296° |
| 2026-04-25 15:59 | 37.60228 | -122.33000 | 563 ft | 119 kts | 296° |
| 2026-04-25 15:59 | 37.60610 | -122.33912 | 379 ft | 116 kts | 297° |
| 2026-04-25 15:59 | 37.60966 | -122.34785 | 263 ft | 113 kts | 296° |
| 2026-04-25 16:00 | 37.61328 | -122.35670 | 116 ft | 112 kts | 297° |
| 2026-04-25 16:00 | 37.61449 | -122.35962 | 75 ft | 109 kts | 297° |
| 2026-04-25 16:00 | 37.61912 | -122.37060 | 16 ft | 20 kts | 299° |
| 2026-04-25 16:00 | 37.61920 | -122.37078 | 16 ft | 0 kts | 300° |
| 2026-04-25 16:01 | 37.61921 | -122.37080 | 16 ft | 5 kts | 300° |
| 2026-04-25 16:01 | 37.61992 | -122.37233 | 16 ft | 29 kts | 300° |
| 2026-04-25 16:01 | 37.62059 | -122.37395 | 15 ft | 33 kts | 297° |
| 2026-04-25 16:01 | 37.62163 | -122.37637 | 18 ft | 30 kts | 296° |
| 2026-04-25 16:02 | 37.62208 | -122.37881 | 20 ft | 25 kts | 278° |
| 2026-04-25 16:02 | 37.62221 | -122.38044 | 23 ft | 14 kts | 277° |
| 2026-04-25 16:02 | 37.62224 | -122.38070 | 23 ft | 0 kts | 277° |
| 2026-04-25 16:04 | 37.62225 | -122.38076 | 23 ft | 6 kts | 277° |
| 2026-04-25 16:05 | 37.62222 | -122.38223 | 21 ft | 25 kts | 255° |
| 2026-04-25 16:05 | 37.62103 | -122.38317 | 20 ft | 19 kts | 162° |
| 2026-04-25 16:05 | 37.61966 | -122.38027 | 20 ft | 20 kts | 121° |
| 2026-04-25 16:06 | 37.61882 | -122.37917 | 20 ft | 12 kts | 149° |
| 2026-04-25 16:06 | 37.61825 | -122.37843 | 17 ft | 5 kts | 116° |
| 2026-04-25 16:06 | 37.61825 | -122.37842 | 17 ft | 0 kts | 116° |
| 2026-04-25 16:06 | 37.61799 | -122.37819 | 16 ft | 4 kts | 189° |
| 2026-04-25 16:07 | 37.61735 | -122.37900 | 18 ft | 22 kts | 223° |
| 2026-04-25 16:07 | 37.61705 | -122.37981 | 16 ft | 14 kts | 281° |
| 2026-04-25 16:07 | 37.61711 | -122.38029 | 18 ft | 3 kts | 277° |
| 2026-04-25 16:07 | 37.61712 | -122.38038 | 16 ft | 0 kts | 277° |